createdAt,value
2023-04-10T00:00:13.340Z,99112.88
2023-04-10T00:01:14.856Z,99115.81
2023-04-10T00:02:16.411Z,99113.19
2023-04-10T00:03:18.346Z,99118.72
2023-04-10T00:04:20.066Z,99111.03
2023-04-10T00:05:21.577Z,99107.75
2023-04-10T00:06:23.044Z,99115.34
2023-04-10T00:07:24.527Z,99115.78
2023-04-10T00:08:26.292Z,99109.16
2023-04-10T00:09:29.020Z,99113.00
2023-04-10T00:10:31.757Z,99113.50
2023-04-10T00:11:33.253Z,99115.19
2023-04-10T00:12:36.946Z,99114.84
2023-04-10T00:13:38.419Z,99117.47
2023-04-10T00:14:39.930Z,99116.72
2023-04-10T00:15:41.637Z,99117.63
2023-04-10T00:16:43.069Z,99110.06
2023-04-10T00:17:44.619Z,99113.72
2023-04-10T00:18:47.179Z,99102.34
2023-04-10T00:19:48.598Z,99112.66
2023-04-10T00:20:50.210Z,99106.47
2023-04-10T00:21:51.715Z,99109.25
2023-04-10T00:22:55.563Z,99104.63
2023-04-10T00:23:56.988Z,99100.47
2023-04-10T00:24:58.403Z,99101.56
2023-04-10T00:26:00.148Z,99098.91
2023-04-10T00:27:01.699Z,99097.53
2023-04-10T00:28:06.210Z,99098.75
2023-04-10T00:29:08.286Z,99094.00
2023-04-10T00:30:09.967Z,99094.47
2023-04-10T00:31:11.597Z,99097.22
2023-04-10T00:32:13.268Z,99096.91
2023-04-10T00:33:14.880Z,99090.44
2023-04-10T00:34:16.661Z,99087.34
2023-04-10T00:35:20.896Z,99091.81
2023-04-10T00:36:22.853Z,99089.69
2023-04-10T00:37:24.828Z,99084.44
2023-04-10T00:38:26.388Z,99086.25
2023-04-10T00:39:27.811Z,99084.59
2023-04-10T00:40:30.438Z,99083.19
2023-04-10T00:41:31.856Z,99078.41
2023-04-10T00:42:33.383Z,99074.22
2023-04-10T00:43:34.850Z,99084.41
2023-04-10T00:44:37.744Z,99077.84
2023-04-10T00:45:39.701Z,99074.19
2023-04-10T00:46:41.545Z,99074.34
2023-04-10T00:47:43.222Z,99074.97
2023-04-10T00:48:44.830Z,99079.84
2023-04-10T00:49:46.567Z,99076.16
2023-04-10T00:50:48.120Z,99075.84
2023-04-10T00:51:49.728Z,99077.41
2023-04-10T00:52:51.627Z,99075.41
2023-04-10T00:53:55.145Z,99079.56
2023-04-10T00:54:57.115Z,99078.03
2023-04-10T00:56:00.324Z,99085.13
2023-04-10T00:57:03.213Z,99082.19
2023-04-10T00:58:04.711Z,99081.91
2023-04-10T00:59:07.301Z,99089.28
2023-04-10T01:00:09.946Z,99087.16
2023-04-10T01:01:11.514Z,99083.28
2023-04-10T01:02:13.393Z,99090.94
2023-04-10T01:03:17.999Z,99087.88
2023-04-10T01:04:19.872Z,99086.34
2023-04-10T01:05:22.282Z,99086.63
2023-04-10T01:06:38.824Z,99085.56
2023-04-10T01:08:18.556Z,99078.75
2023-04-10T01:09:39.671Z,99084.91
2023-04-10T01:10:51.868Z,99077.84
2023-04-10T01:12:09.078Z,99075.47
2023-04-10T01:13:24.420Z,99081.16
2023-04-10T01:14:42.788Z,99080.25
2023-04-10T01:15:53.186Z,99076.75
2023-04-10T01:17:04.402Z,99076.13
2023-04-10T01:18:31.687Z,99072.13
2023-04-10T01:19:47.368Z,99075.72
2023-04-10T01:20:48.917Z,99077.09
2023-04-10T01:21:53.538Z,99070.72
2023-04-10T01:23:42.625Z,99075.50
2023-04-10T01:25:15.060Z,99074.44
2023-04-10T01:26:19.740Z,99065.44
2023-04-10T01:27:40.202Z,99071.75
2023-04-10T01:29:00.529Z,99069.63
2023-04-10T01:30:04.311Z,99071.47
2023-04-10T01:31:08.616Z,99077.34
2023-04-10T01:32:23.111Z,99075.38
2023-04-10T01:33:33.738Z,99069.97
2023-04-10T01:34:47.794Z,99078.75
2023-04-10T01:35:52.475Z,99082.63
2023-04-10T01:36:58.556Z,99079.41
2023-04-10T01:38:02.246Z,99085.25
2023-04-10T01:39:05.584Z,99079.41
2023-04-10T01:40:10.452Z,99080.66
2023-04-10T01:41:13.653Z,99088.50
2023-04-10T01:42:17.834Z,99085.41
2023-04-10T01:43:21.901Z,99079.22
2023-04-10T01:44:31.494Z,99086.03
2023-04-10T01:45:33.708Z,99086.16
2023-04-10T01:46:37.991Z,99080.63
2023-04-10T01:47:39.909Z,99075.06
2023-04-10T01:48:41.919Z,99080.78
2023-04-10T01:49:47.100Z,99079.06
2023-04-10T01:50:50.343Z,99081.19
2023-04-10T01:51:54.257Z,99084.56
2023-04-10T01:52:57.386Z,99085.63
2023-04-10T01:54:01.214Z,99080.38
2023-04-10T01:55:04.510Z,99085.91
2023-04-10T01:56:08.343Z,99079.47
2023-04-10T01:57:12.625Z,99080.50
2023-04-10T01:58:14.248Z,99085.09
2023-04-10T01:59:16.204Z,99084.44
2023-04-10T02:00:17.874Z,99084.88
2023-04-10T02:01:29.005Z,99087.66
2023-04-10T02:02:32.913Z,99089.50
2023-04-10T02:03:34.544Z,99086.28
2023-04-10T02:04:36.228Z,99082.03
2023-04-10T02:05:54.933Z,99080.00
2023-04-10T02:07:09.330Z,99074.75
2023-04-10T02:08:28.725Z,99091.16
2023-04-10T02:10:02.185Z,99088.19
2023-04-10T02:11:17.854Z,99081.56
2023-04-10T02:12:26.703Z,99079.09
2023-04-10T02:13:29.891Z,99084.75
2023-04-10T02:14:34.016Z,99081.06
2023-04-10T02:15:37.425Z,99075.25
2023-04-10T02:16:39.408Z,99083.09
2023-04-10T02:17:41.936Z,99085.72
2023-04-10T02:18:43.749Z,99080.28
2023-04-10T02:19:48.670Z,99080.72
2023-04-10T02:20:51.081Z,99078.56
2023-04-10T02:21:54.103Z,99084.75
2023-04-10T02:22:55.810Z,99081.38
2023-04-10T02:23:58.873Z,99081.06
2023-04-10T02:25:00.644Z,99072.75
2023-04-10T02:26:11.130Z,99079.84
2023-04-10T02:27:12.636Z,99080.41
2023-04-10T02:28:14.084Z,99074.09
2023-04-10T02:29:15.837Z,99080.09
2023-04-10T02:30:17.406Z,99091.00
2023-04-10T02:31:19.096Z,99084.34
2023-04-10T02:32:20.761Z,99088.00
2023-04-10T02:33:22.204Z,99084.16
2023-04-10T02:34:23.743Z,99086.75
2023-04-10T02:35:26.375Z,99086.00
2023-04-10T02:36:28.914Z,99084.19
2023-04-10T02:37:31.375Z,99092.50
2023-04-10T02:38:32.825Z,99091.72
2023-04-10T02:39:35.034Z,99094.34
2023-04-10T02:40:37.243Z,99090.88
2023-04-10T02:41:38.717Z,99093.88
2023-04-10T02:42:40.483Z,99090.94
2023-04-10T02:43:42.387Z,99093.97
2023-04-10T02:44:44.853Z,99092.91
2023-04-10T02:45:46.555Z,99097.06
2023-04-10T02:46:48.183Z,99091.06
2023-04-10T02:47:49.704Z,99087.03
2023-04-10T02:48:52.788Z,99087.28
2023-04-10T02:49:54.258Z,99090.63
2023-04-10T02:50:56.396Z,99087.25
2023-04-10T02:51:57.815Z,99088.66
2023-04-10T02:52:59.277Z,99084.22
2023-04-10T02:54:00.827Z,99076.38
2023-04-10T02:55:02.264Z,99079.00
2023-04-10T02:56:06.548Z,99087.59
2023-04-10T02:57:07.988Z,99089.25
2023-04-10T02:58:10.179Z,99089.44
2023-04-10T02:59:13.322Z,99083.81
2023-04-10T03:00:15.683Z,99084.63
2023-04-10T03:01:17.260Z,99088.97
2023-04-10T03:02:18.888Z,99086.75
2023-04-10T03:03:20.983Z,99095.34
2023-04-10T03:04:23.377Z,99087.16
2023-04-10T03:05:24.861Z,99087.63
2023-04-10T03:06:27.356Z,99087.53
2023-04-10T03:07:28.790Z,99089.75
2023-04-10T03:08:30.706Z,99088.13
2023-04-10T03:09:32.156Z,99082.91
2023-04-10T03:10:33.712Z,99081.53
2023-04-10T03:11:35.788Z,99085.53
2023-04-10T03:12:37.578Z,99085.13
2023-04-10T03:13:39.486Z,99082.63
2023-04-10T03:14:41.474Z,99080.50
2023-04-10T03:15:43.589Z,99077.28
2023-04-10T03:16:45.366Z,99081.16
2023-04-10T03:17:47.429Z,99080.78
2023-04-10T03:18:49.485Z,99085.13
2023-04-10T03:19:50.982Z,99081.53
2023-04-10T03:20:52.510Z,99078.16
2023-04-10T03:21:54.429Z,99086.78
2023-04-10T03:22:55.996Z,99083.59
2023-04-10T03:23:57.592Z,99086.88
2023-04-10T03:24:59.157Z,99082.91
2023-04-10T03:26:00.736Z,99080.88
2023-04-10T03:27:02.328Z,99081.38
2023-04-10T03:28:03.930Z,99080.00
2023-04-10T03:29:05.416Z,99083.28
2023-04-10T03:30:07.822Z,99080.59
2023-04-10T03:31:10.522Z,99082.91
2023-04-10T03:32:11.949Z,99079.63
2023-04-10T03:33:13.877Z,99084.00
2023-04-10T03:34:15.348Z,99072.78
2023-04-10T03:35:16.830Z,99079.75
2023-04-10T03:36:18.672Z,99077.03
2023-04-10T03:37:20.297Z,99074.13
2023-04-10T03:38:22.216Z,99080.09
2023-04-10T03:39:24.675Z,99079.03
2023-04-10T03:40:26.407Z,99082.16
2023-04-10T03:41:27.894Z,99079.53
2023-04-10T03:42:29.489Z,99074.59
2023-04-10T03:43:31.822Z,99070.44
2023-04-10T03:44:34.255Z,99077.19
2023-04-10T03:45:35.690Z,99071.50
2023-04-10T03:46:37.152Z,99073.66
2023-04-10T03:47:39.132Z,99071.41
2023-04-10T03:48:41.345Z,99074.03
2023-04-10T03:49:42.783Z,99075.84
2023-04-10T03:50:44.991Z,99068.91
2023-04-10T03:51:46.463Z,99063.78
2023-04-10T03:52:49.817Z,99069.09
2023-04-10T03:53:51.685Z,99072.28
2023-04-10T03:54:56.345Z,99068.13
2023-04-10T03:55:57.765Z,99067.66
2023-04-10T03:56:59.193Z,99061.28
2023-04-10T03:58:00.764Z,99058.16
2023-04-10T03:59:02.270Z,99073.03
2023-04-10T04:00:05.720Z,99064.53
2023-04-10T04:01:07.732Z,99060.41
2023-04-10T04:02:09.306Z,99065.81
2023-04-10T04:03:10.973Z,99066.88
2023-04-10T04:04:12.670Z,99070.63
2023-04-10T04:05:14.216Z,99072.25
2023-04-10T04:06:16.213Z,99066.09
2023-04-10T04:07:17.718Z,99066.28
2023-04-10T04:08:19.294Z,99073.25
2023-04-10T04:09:20.775Z,99070.16
2023-04-10T04:10:22.289Z,99071.13
2023-04-10T04:11:23.746Z,99069.78
2023-04-10T04:12:25.254Z,99065.91
2023-04-10T04:13:27.254Z,99067.72
2023-04-10T04:14:28.698Z,99064.66
2023-04-10T04:15:30.356Z,99063.38
2023-04-10T04:16:32.321Z,99064.53
2023-04-10T04:17:34.366Z,99067.91
2023-04-10T04:18:36.573Z,99070.44
2023-04-10T04:19:38.497Z,99065.13
2023-04-10T04:20:39.965Z,99060.09
2023-04-10T04:21:41.432Z,99063.56
2023-04-10T04:22:42.922Z,99063.78
2023-04-10T04:23:44.388Z,99066.78
2023-04-10T04:24:45.823Z,99071.22
2023-04-10T04:25:47.266Z,99072.47
2023-04-10T04:26:48.803Z,99080.50
2023-04-10T04:27:50.786Z,99076.06
2023-04-10T04:28:52.916Z,99071.31
2023-04-10T04:29:54.365Z,99074.69
2023-04-10T04:30:55.904Z,99078.56
2023-04-10T04:31:57.446Z,99081.66
2023-04-10T04:32:59.489Z,99075.66
2023-04-10T04:34:01.406Z,99081.94
2023-04-10T04:35:03.203Z,99082.72
2023-04-10T04:36:05.466Z,99082.63
2023-04-10T04:37:06.918Z,99082.34
2023-04-10T04:38:08.388Z,99087.75
2023-04-10T04:39:09.827Z,99083.66
2023-04-10T04:40:11.637Z,99081.34
2023-04-10T04:41:13.069Z,99084.94
2023-04-10T04:42:14.553Z,99087.44
2023-04-10T04:43:16.115Z,99086.38
2023-04-10T04:44:20.167Z,99078.06
2023-04-10T04:45:21.926Z,99083.09
2023-04-10T04:46:23.526Z,99076.03
2023-04-10T04:47:25.701Z,99076.25
2023-04-10T04:48:27.617Z,99075.19
2023-04-10T04:49:29.594Z,99080.69
2023-04-10T04:50:31.159Z,99088.78
2023-04-10T04:51:32.611Z,99082.22
2023-04-10T04:52:35.827Z,99088.41
2023-04-10T04:53:37.316Z,99087.81
2023-04-10T04:54:38.779Z,99097.13
2023-04-10T04:55:40.931Z,99097.13
2023-04-10T04:56:42.494Z,99103.13
2023-04-10T04:57:44.418Z,99102.25
2023-04-10T04:58:45.852Z,99101.19
2023-04-10T04:59:47.262Z,99108.91
2023-04-10T05:00:48.737Z,99103.91
2023-04-10T05:01:50.461Z,99101.59
2023-04-10T05:02:52.568Z,99094.69
2023-04-10T05:03:54.350Z,99104.56
2023-04-10T05:04:56.033Z,99101.19
2023-04-10T05:05:58.212Z,99105.34
2023-04-10T05:06:59.692Z,99102.94
2023-04-10T05:08:01.181Z,99112.00
2023-04-10T05:09:03.229Z,99099.56
2023-04-10T05:10:05.232Z,99102.53
2023-04-10T05:11:06.970Z,99112.88
2023-04-10T05:12:08.410Z,99115.78
2023-04-10T05:13:09.842Z,99115.69
2023-04-10T05:14:11.264Z,99116.66
2023-04-10T05:15:12.704Z,99117.13
2023-04-10T05:16:14.252Z,99119.94
2023-04-10T05:17:16.882Z,99121.00
2023-04-10T05:18:21.815Z,99124.50
2023-04-10T05:19:23.284Z,99123.41
2023-04-10T05:20:24.806Z,99117.94
2023-04-10T05:21:27.431Z,99117.03
2023-04-10T05:22:28.979Z,99124.00
2023-04-10T05:23:30.466Z,99118.69
2023-04-10T05:24:31.991Z,99121.31
2023-04-10T05:25:33.441Z,99111.63
2023-04-10T05:26:35.434Z,99112.41
2023-04-10T05:27:37.450Z,99114.81
2023-04-10T05:28:38.824Z,99106.88
2023-04-10T05:29:40.275Z,99106.41
2023-04-10T05:30:42.192Z,99106.63
2023-04-10T05:31:43.638Z,99107.28
2023-04-10T05:32:46.204Z,99103.81
2023-04-10T05:33:47.679Z,99106.78
2023-04-10T05:34:49.127Z,99110.38
2023-04-10T05:35:50.738Z,99103.03
2023-04-10T05:36:52.143Z,99099.72
2023-04-10T05:37:53.609Z,99101.97
2023-04-10T05:38:55.167Z,99100.00
2023-04-10T05:39:56.649Z,99096.63
2023-04-10T05:40:58.053Z,99100.78
2023-04-10T05:41:59.478Z,99098.06
2023-04-10T05:43:00.939Z,99097.59
2023-04-10T05:44:02.377Z,99101.31
2023-04-10T05:45:04.089Z,99100.34
2023-04-10T05:46:05.980Z,99103.78
2023-04-10T05:47:07.408Z,99107.06
2023-04-10T05:48:08.822Z,99113.13
2023-04-10T05:49:10.217Z,99108.59
2023-04-10T05:50:11.728Z,99112.63
2023-04-10T05:51:13.146Z,99105.13
2023-04-10T05:52:14.649Z,99106.38
2023-04-10T05:53:18.957Z,99109.66
2023-04-10T05:54:20.812Z,99107.09
2023-04-10T05:55:22.222Z,99106.50
2023-04-10T05:56:23.672Z,99105.00
2023-04-10T05:57:25.536Z,99105.38
2023-04-10T05:58:27.184Z,99102.13
2023-04-10T05:59:29.112Z,99104.16
2023-04-10T06:00:30.740Z,99106.34
2023-04-10T06:01:32.148Z,99099.44
2023-04-10T06:02:33.793Z,99103.78
2023-04-10T06:03:36.131Z,99109.38
2023-04-10T06:04:37.906Z,99106.63
2023-04-10T06:05:41.324Z,99108.78
2023-04-10T06:06:42.914Z,99105.91
2023-04-10T06:07:44.390Z,99107.78
2023-04-10T06:08:45.860Z,99104.13
2023-04-10T06:09:47.272Z,99096.91
2023-04-10T06:10:48.947Z,99104.78
2023-04-10T06:11:50.520Z,99100.50
2023-04-10T06:12:52.009Z,99105.91
2023-04-10T06:13:53.433Z,99101.44
2023-04-10T06:14:54.882Z,99099.91
2023-04-10T06:15:56.427Z,99094.69
2023-04-10T06:16:57.938Z,99100.53
2023-04-10T06:17:59.406Z,99094.53
2023-04-10T06:19:01.022Z,99099.47
2023-04-10T06:20:06.165Z,99100.69
2023-04-10T06:21:08.211Z,99101.00
2023-04-10T06:22:09.635Z,99101.63
2023-04-10T06:23:12.381Z,99103.00
2023-04-10T06:24:14.336Z,99098.38
2023-04-10T06:25:16.130Z,99095.44
2023-04-10T06:26:18.222Z,99097.25
2023-04-10T06:27:20.196Z,99097.53
2023-04-10T06:28:21.669Z,99100.31
2023-04-10T06:29:26.018Z,99092.72
2023-04-10T06:30:31.151Z,99094.56
2023-04-10T06:31:34.757Z,99101.75
2023-04-10T06:32:36.257Z,99100.03
2023-04-10T06:33:37.766Z,99095.31
2023-04-10T06:34:39.574Z,99102.84
2023-04-10T06:35:41.605Z,99099.09
2023-04-10T06:36:43.691Z,99100.28
2023-04-10T06:37:47.392Z,99102.81
2023-04-10T06:38:55.058Z,99103.72
2023-04-10T06:41:31.556Z,99099.09
2023-04-10T06:42:33.523Z,99101.91
2023-04-10T06:43:38.964Z,99106.09
2023-04-10T06:44:44.235Z,99100.44
2023-04-10T06:45:46.047Z,99097.53
2023-04-10T06:46:47.530Z,99098.75
2023-04-10T06:47:49.134Z,99097.34
2023-04-10T06:48:50.762Z,99096.56
2023-04-10T06:49:52.490Z,99091.97
2023-04-10T06:50:54.204Z,99090.75
2023-04-10T06:51:55.908Z,99095.25
2023-04-10T06:52:59.994Z,99096.91
2023-04-10T06:54:01.649Z,99099.41
2023-04-10T06:55:03.184Z,99099.31
2023-04-10T06:56:05.370Z,99090.94
2023-04-10T06:57:07.097Z,99101.47
2023-04-10T06:58:13.669Z,99094.63
2023-04-10T06:59:17.413Z,99094.94
2023-04-10T07:00:19.394Z,99099.38
2023-04-10T07:01:20.956Z,99100.53
2023-04-10T07:02:23.023Z,99097.59
2023-04-10T07:03:25.092Z,99097.69
2023-04-10T07:04:26.621Z,99106.44
2023-04-10T07:05:29.279Z,99111.69
2023-04-10T07:06:31.423Z,99107.50
2023-04-10T07:07:33.884Z,99101.81
2023-04-10T07:08:35.612Z,99106.25
2023-04-10T07:09:37.068Z,99097.47
2023-04-10T07:10:38.506Z,99100.84
2023-04-10T07:11:40.005Z,99105.38
2023-04-10T07:12:41.660Z,99106.34
2023-04-10T07:13:43.092Z,99102.84
2023-04-10T07:14:44.584Z,99107.22
2023-04-10T07:15:46.077Z,99101.38
2023-04-10T07:16:51.884Z,99098.13
2023-04-10T07:17:54.975Z,99098.53
2023-04-10T07:18:56.989Z,99101.72
2023-04-10T07:19:59.385Z,99095.25
2023-04-10T07:21:01.124Z,99093.34
2023-04-10T07:22:02.578Z,99094.94
2023-04-10T07:23:07.351Z,99095.88
2023-04-10T07:24:08.928Z,99091.03
2023-04-10T07:25:10.674Z,99087.34
2023-04-10T07:26:12.505Z,99092.03
2023-04-10T07:27:13.935Z,99085.59
2023-04-10T07:28:15.373Z,99088.59
2023-04-10T07:29:16.868Z,99091.09
2023-04-10T07:30:18.963Z,99086.28
2023-04-10T07:31:20.559Z,99081.44
2023-04-10T07:32:22.725Z,99084.94
2023-04-10T07:33:24.418Z,99079.41
2023-04-10T07:34:26.266Z,99077.81
2023-04-10T07:35:27.725Z,99074.19
2023-04-10T07:36:29.524Z,99071.19
2023-04-10T07:37:31.490Z,99076.88
2023-04-10T07:38:33.169Z,99070.66
2023-04-10T07:39:34.579Z,99070.06
2023-04-10T07:40:35.994Z,99072.06
2023-04-10T07:41:37.966Z,99079.34
2023-04-10T07:42:39.443Z,99070.66
2023-04-10T07:43:41.566Z,99064.91
2023-04-10T07:44:43.017Z,99065.34
2023-04-10T07:45:44.488Z,99066.53
2023-04-10T07:46:45.981Z,99066.63
2023-04-10T07:47:47.779Z,99064.34
2023-04-10T07:48:49.805Z,99061.69
2023-04-10T07:49:51.340Z,99063.69
2023-04-10T07:50:53.115Z,99060.81
2023-04-10T07:51:54.682Z,99067.69
2023-04-10T07:52:56.910Z,99054.75
2023-04-10T07:53:58.431Z,99060.47
2023-04-10T07:55:03.173Z,99066.28
2023-04-10T07:56:05.134Z,99065.84
2023-04-10T07:57:06.626Z,99062.81
2023-04-10T07:58:08.117Z,99058.22
2023-04-10T07:59:10.128Z,99066.28
2023-04-10T08:00:12.288Z,99059.13
2023-04-10T08:01:14.835Z,99073.63
2023-04-10T08:02:16.349Z,99062.66
2023-04-10T08:03:18.142Z,99057.38
2023-04-10T08:04:20.590Z,99068.09
2023-04-10T08:05:22.272Z,99064.34
2023-04-10T08:06:23.849Z,99066.59
2023-04-10T08:07:25.366Z,99056.78
2023-04-10T08:08:26.852Z,99062.47
2023-04-10T08:09:28.883Z,99062.13
2023-04-10T08:10:30.400Z,99058.66
2023-04-10T08:11:35.288Z,99063.25
2023-04-10T08:12:38.127Z,99063.44
2023-04-10T08:13:39.552Z,99059.50
2023-04-10T08:14:41.269Z,99062.03
2023-04-10T08:15:43.166Z,99064.41
2023-04-10T08:16:44.708Z,99073.75
2023-04-10T08:17:46.184Z,99067.38
2023-04-10T08:18:47.656Z,99064.53
2023-04-10T08:19:49.121Z,99065.47
2023-04-10T08:20:50.564Z,99063.34
2023-04-10T08:21:52.014Z,99067.16
2023-04-10T08:22:54.237Z,99071.00
2023-04-10T08:24:01.222Z,99070.38
2023-04-10T08:25:03.290Z,99073.38
2023-04-10T08:26:05.531Z,99067.22
2023-04-10T08:27:06.960Z,99068.59
2023-04-10T08:28:08.378Z,99074.66
2023-04-10T08:29:09.810Z,99068.97
2023-04-10T08:30:11.657Z,99073.16
2023-04-10T08:31:14.169Z,99074.84
2023-04-10T08:32:15.732Z,99070.56
2023-04-10T08:33:17.271Z,99065.56
2023-04-10T08:34:18.691Z,99062.91
2023-04-10T08:35:20.308Z,99063.50
2023-04-10T08:36:21.958Z,99060.72
2023-04-10T08:37:23.457Z,99057.06
2023-04-10T08:38:27.536Z,99063.69
2023-04-10T08:39:28.965Z,99064.13
2023-04-10T08:40:30.493Z,99062.97
2023-04-10T08:41:32.176Z,99061.38
2023-04-10T08:42:34.716Z,99062.00
2023-04-10T08:43:37.134Z,99053.13
2023-04-10T08:44:39.818Z,99060.25
2023-04-10T08:45:41.501Z,99050.97
2023-04-10T08:46:44.868Z,99054.38
2023-04-10T08:47:48.986Z,99049.09
2023-04-10T08:49:04.118Z,99047.53
2023-04-10T08:50:10.580Z,99050.47
2023-04-10T08:51:19.985Z,99042.69
2023-04-10T08:52:25.646Z,99044.16
2023-04-10T08:53:31.581Z,99047.88
2023-04-10T08:54:35.758Z,99042.56
2023-04-10T08:55:38.409Z,99048.25
2023-04-10T08:56:42.811Z,99050.53
2023-04-10T08:57:50.922Z,99046.75
2023-04-10T08:59:05.812Z,99043.75
2023-04-10T09:00:22.115Z,99054.28
2023-04-10T09:01:25.604Z,99042.88
2023-04-10T09:02:28.797Z,99046.63
2023-04-10T09:03:31.113Z,99043.91
2023-04-10T09:04:33.513Z,99049.25
2023-04-10T09:05:35.987Z,99036.16
2023-04-10T09:06:37.567Z,99042.97
2023-04-10T09:07:39.229Z,99045.16
2023-04-10T09:08:40.696Z,99040.56
2023-04-10T09:09:43.224Z,99037.59
2023-04-10T09:10:44.687Z,99034.28
2023-04-10T09:11:52.262Z,99041.16
2023-04-10T09:12:53.741Z,99031.22
2023-04-10T09:13:55.411Z,99033.13
2023-04-10T09:14:57.235Z,99028.06
2023-04-10T09:16:00.288Z,99027.19
2023-04-10T09:17:16.207Z,99028.22
2023-04-10T09:18:18.156Z,99026.94
2023-04-10T09:19:33.730Z,99021.16
2023-04-10T09:20:35.331Z,99027.16
2023-04-10T09:21:36.854Z,99025.56
2023-04-10T09:22:38.904Z,99023.16
2023-04-10T09:23:42.222Z,99019.94
2023-04-10T09:24:45.457Z,99022.22
2023-04-10T09:25:47.855Z,99013.88
2023-04-10T09:26:50.246Z,99004.38
2023-04-10T09:28:08.723Z,99012.69
2023-04-10T09:29:12.312Z,99012.75
2023-04-10T09:30:34.316Z,99013.19
2023-04-10T09:31:40.155Z,99012.84
2023-04-10T09:32:44.304Z,99009.06
2023-04-10T09:33:46.350Z,99002.69
2023-04-10T09:34:57.144Z,99006.97
2023-04-10T09:36:04.195Z,99009.63
2023-04-10T09:37:06.102Z,99000.81
2023-04-10T09:38:18.671Z,99011.09
2023-04-10T09:39:20.302Z,99001.72
2023-04-10T09:40:25.256Z,98997.63
2023-04-10T09:41:26.922Z,99001.50
2023-04-10T09:42:35.563Z,99001.94
2023-04-10T09:43:38.985Z,99006.53
2023-04-10T09:44:41.442Z,99005.34
2023-04-10T09:45:55.069Z,98992.28
2023-04-10T09:46:57.200Z,98994.97
2023-04-10T09:48:07.805Z,98988.22
2023-04-10T09:49:09.493Z,98996.25
2023-04-10T09:50:10.929Z,98987.53
2023-04-10T09:51:29.933Z,98989.09
2023-04-10T09:52:33.570Z,98992.06
2023-04-10T09:53:48.495Z,98987.16
2023-04-10T09:54:49.955Z,98980.31
2023-04-10T09:55:51.634Z,98978.53
2023-04-10T09:56:54.473Z,98968.72
2023-04-10T09:57:57.677Z,98975.97
2023-04-10T09:59:02.225Z,98970.34
2023-04-10T10:00:07.069Z,98979.88
2023-04-10T10:01:08.772Z,98970.78
2023-04-10T10:02:13.313Z,98971.09
2023-04-10T10:03:16.676Z,98971.13
2023-04-10T10:04:18.548Z,98963.88
2023-04-10T10:05:49.557Z,98961.91
2023-04-10T10:06:51.157Z,98955.50
2023-04-10T10:07:52.604Z,98952.06
2023-04-10T10:08:54.645Z,98945.63
2023-04-10T10:09:57.917Z,98945.69
2023-04-10T10:11:01.695Z,98948.44
2023-04-10T10:12:06.925Z,98947.72
2023-04-10T10:13:09.891Z,98946.28
2023-04-10T10:14:17.377Z,98951.94
2023-04-10T10:16:00.479Z,98943.34
2023-04-10T10:17:16.803Z,98944.16
2023-04-10T10:18:26.352Z,98930.97
2023-04-10T10:19:45.306Z,98935.97
2023-04-10T10:20:47.312Z,98933.41
2023-04-10T10:21:49.172Z,98936.84
2023-04-10T10:22:51.842Z,98933.47
2023-04-10T10:23:55.679Z,98930.91
2023-04-10T10:25:02.889Z,98934.44
2023-04-10T10:26:08.764Z,98927.22
2023-04-10T10:27:10.806Z,98922.28
2023-04-10T10:28:17.526Z,98925.84
2023-04-10T10:29:21.958Z,98932.34
2023-04-10T10:30:29.981Z,98915.69
2023-04-10T10:31:34.107Z,98919.94
2023-04-10T10:32:36.644Z,98912.81
2023-04-10T10:33:39.255Z,98913.94
2023-04-10T10:34:41.500Z,98918.50
2023-04-10T10:35:43.774Z,98910.16
2023-04-10T10:36:45.520Z,98913.97
2023-04-10T10:40:35.972Z,98912.94
2023-04-10T10:56:29.056Z,98898.28
2023-04-10T10:57:47.239Z,98884.22
2023-04-10T10:58:51.163Z,98889.84
2023-04-10T10:59:54.310Z,98892.94
2023-04-10T11:00:58.969Z,98888.75
2023-04-10T11:02:19.694Z,98889.91
2023-04-10T11:03:22.640Z,98892.16
2023-04-10T11:04:44.872Z,98880.38
2023-04-10T11:05:54.192Z,98872.00
2023-04-10T11:06:56.640Z,98871.56
2023-04-10T11:08:01.966Z,98879.13
2023-04-10T11:09:03.648Z,98866.94
2023-04-10T11:10:05.572Z,98871.47
2023-04-10T11:11:16.887Z,98886.66
2023-04-10T11:12:23.808Z,98864.63
2023-04-10T11:13:25.387Z,98863.47
2023-04-10T11:14:27.496Z,98863.81
2023-04-10T11:15:29.106Z,98856.56
2023-04-10T11:16:31.542Z,98863.78
2023-04-10T11:17:50.715Z,98854.72
2023-04-10T11:19:02.695Z,98854.75
2023-04-10T11:20:12.028Z,98857.47
2023-04-10T11:21:16.133Z,98849.88
2023-04-10T11:22:17.646Z,98860.50
2023-04-10T11:23:20.457Z,98858.97
2023-04-10T11:24:22.269Z,98849.88
2023-04-10T11:25:47.785Z,98850.56
2023-04-10T11:26:49.313Z,98845.22
2023-04-10T11:27:52.818Z,98845.59
2023-04-10T11:28:55.518Z,98842.94
2023-04-10T11:29:58.320Z,98846.34
2023-04-10T11:31:19.859Z,98836.88
2023-04-10T11:32:21.507Z,98841.03
2023-04-10T11:33:23.218Z,98844.88
2023-04-10T11:34:25.415Z,98838.81
2023-04-10T11:35:28.321Z,98838.03
2023-04-10T11:36:30.567Z,98844.84
2023-04-10T11:37:32.174Z,98841.41
2023-04-10T11:38:34.374Z,98834.59
2023-04-10T11:39:35.874Z,98837.66
2023-04-10T11:40:53.363Z,98832.63
2023-04-10T11:41:58.434Z,98834.16
2023-04-10T11:43:14.147Z,98818.94
2023-04-10T11:44:27.128Z,98821.22
2023-04-10T11:45:29.096Z,98828.84
2023-04-10T11:46:31.740Z,98828.88
2023-04-10T11:47:35.673Z,98827.00
2023-04-10T11:48:37.609Z,98834.59
2023-04-10T11:49:39.136Z,98824.72
2023-04-10T11:50:41.385Z,98820.91
2023-04-10T11:51:46.511Z,98815.59
2023-04-10T11:52:51.288Z,98828.16
2023-04-10T11:54:21.259Z,98820.19
2023-04-10T11:55:39.217Z,98812.25
2023-04-10T11:56:42.582Z,98812.63
2023-04-10T11:57:45.668Z,98818.31
2023-04-10T11:58:49.764Z,98819.44
2023-04-10T11:59:51.649Z,98821.34
2023-04-10T12:01:01.947Z,98810.34
2023-04-10T12:02:09.270Z,98804.31
2023-04-10T12:03:11.810Z,98805.09
2023-04-10T12:04:18.886Z,98807.03
2023-04-10T12:05:20.832Z,98804.00
2023-04-10T12:06:22.538Z,98800.97
2023-04-10T12:07:25.519Z,98803.63
2023-04-10T12:08:31.700Z,98804.78
2023-04-10T12:09:33.746Z,98796.03
2023-04-10T12:10:46.981Z,98800.25
2023-04-10T12:12:08.979Z,98805.97
2023-04-10T12:13:25.189Z,98803.28
2023-04-10T12:14:39.722Z,98798.75
2023-04-10T12:15:41.273Z,98807.50
2023-04-10T12:16:42.979Z,98794.94
2023-04-10T12:17:45.055Z,98794.56
2023-04-10T12:18:46.838Z,98808.25
2023-04-10T12:19:48.541Z,98793.81
2023-04-10T12:20:51.877Z,98800.66
2023-04-10T12:21:53.915Z,98789.63
2023-04-10T12:22:56.831Z,98791.16
2023-04-10T12:23:58.317Z,98789.25
2023-04-10T12:24:59.744Z,98790.78
2023-04-10T12:26:28.013Z,98787.28
2023-04-10T12:27:29.461Z,98782.31
2023-04-10T12:28:30.947Z,98789.22
2023-04-10T12:29:32.427Z,98781.91
2023-04-10T12:30:34.083Z,98778.06
2023-04-10T12:31:37.331Z,98784.91
2023-04-10T12:32:39.660Z,98776.88
2023-04-10T12:33:45.399Z,98782.19
2023-04-10T12:34:51.075Z,98789.00
2023-04-10T12:35:55.680Z,98773.34
2023-04-10T12:36:59.738Z,98771.41
2023-04-10T12:38:01.383Z,98776.69
2023-04-10T12:39:04.420Z,98775.34
2023-04-10T12:40:09.047Z,98773.69
2023-04-10T12:41:11.738Z,98781.16
2023-04-10T12:42:20.976Z,98766.75
2023-04-10T12:43:33.866Z,98769.88
2023-04-10T12:44:35.815Z,98773.97
2023-04-10T12:45:45.030Z,98768.53
2023-04-10T12:46:46.727Z,98761.50
2023-04-10T12:47:52.140Z,98762.88
2023-04-10T12:48:54.696Z,98763.13